createdAt,value
2023-03-24T00:00:28.285Z,51.63
2023-03-24T00:03:01.743Z,51.77
2023-03-24T00:05:31.260Z,51.92
2023-03-24T00:08:03.232Z,51.70
2023-03-24T00:10:35.059Z,51.55
2023-03-24T00:13:04.365Z,51.50
2023-03-24T00:15:36.570Z,51.42
2023-03-24T00:18:10.924Z,51.33
2023-03-24T00:20:42.438Z,51.92
2023-03-24T00:23:12.573Z,51.67
2023-03-24T00:25:41.184Z,51.78
2023-03-24T00:28:11.477Z,51.92
2023-03-24T00:30:41.685Z,52.20
2023-03-24T00:33:11.711Z,52.37
2023-03-24T00:35:45.070Z,52.70
2023-03-24T00:38:14.825Z,52.46
2023-03-24T00:40:49.131Z,52.46
2023-03-24T00:43:18.690Z,52.52
2023-03-24T00:45:47.955Z,52.42
2023-03-24T00:48:24.584Z,52.49
2023-03-24T00:50:53.183Z,52.32
2023-03-24T00:53:23.414Z,52.00
2023-03-24T00:55:54.089Z,52.00
2023-03-24T00:58:23.661Z,52.25
2023-03-24T01:00:56.689Z,52.20
2023-03-24T01:03:29.526Z,52.37
2023-03-24T01:06:04.370Z,52.53
2023-03-24T01:08:33.614Z,52.63
2023-03-24T01:11:02.275Z,52.61
2023-03-24T01:13:34.508Z,52.63
2023-03-24T01:16:03.458Z,52.47
2023-03-24T01:18:32.145Z,52.53
2023-03-24T01:21:01.523Z,52.14
2023-03-24T01:23:31.290Z,52.60
2023-03-24T01:26:00.471Z,52.90
2023-03-24T01:28:29.758Z,53.48
2023-03-24T01:30:58.490Z,53.82
2023-03-24T01:33:27.292Z,53.64
2023-03-24T01:35:56.250Z,53.71
2023-03-24T01:38:25.223Z,53.71
2023-03-24T01:40:55.628Z,53.62
2023-03-24T01:43:31.397Z,53.68
2023-03-24T01:46:17.514Z,53.74
2023-03-24T01:49:00.025Z,54.18
2023-03-24T01:51:43.355Z,54.41
2023-03-24T01:54:23.949Z,53.98
2023-03-24T01:57:07.089Z,54.23
2023-03-24T01:59:39.932Z,54.16
2023-03-24T02:02:14.778Z,54.08
2023-03-24T02:04:59.541Z,53.84
2023-03-24T02:07:47.022Z,54.05
2023-03-24T02:10:17.156Z,54.33
2023-03-24T02:12:46.690Z,54.31
2023-03-24T02:15:17.752Z,54.79
2023-03-24T02:18:02.294Z,54.94
2023-03-24T02:20:47.272Z,54.95
2023-03-24T02:23:47.467Z,55.64
2023-03-24T02:26:22.414Z,55.02
2023-03-24T02:29:05.280Z,54.65
2023-03-24T02:31:39.585Z,55.18
2023-03-24T02:34:26.646Z,55.16
2023-03-24T02:37:17.354Z,55.19
2023-03-24T02:39:49.745Z,55.16
2023-03-24T02:42:23.733Z,55.05
2023-03-24T02:45:11.863Z,54.89
2023-03-24T02:47:56.696Z,54.81
2023-03-24T02:50:31.648Z,54.70
2023-03-24T02:53:12.489Z,54.91
2023-03-24T02:55:45.065Z,55.34
2023-03-24T02:58:40.771Z,55.28
2023-03-24T03:01:14.171Z,55.49
2023-03-24T03:04:18.590Z,55.55
2023-03-24T03:06:52.728Z,55.97
2023-03-24T03:09:22.084Z,56.01
2023-03-24T03:11:52.948Z,56.00
2023-03-24T03:14:32.534Z,56.03
2023-03-24T03:17:14.777Z,56.08
2023-03-24T03:20:11.439Z,55.92
2023-03-24T03:22:44.121Z,56.07
2023-03-24T03:25:13.217Z,56.14
2023-03-24T03:27:43.563Z,56.06
2023-03-24T03:30:18.778Z,56.10
2023-03-24T03:32:54.688Z,56.19
2023-03-24T03:35:29.159Z,56.29
2023-03-24T03:37:57.799Z,56.27
2023-03-24T03:40:37.569Z,56.71
2023-03-24T03:43:13.612Z,56.31
2023-03-24T03:45:48.964Z,56.26
2023-03-24T03:48:18.388Z,56.13
2023-03-24T03:50:47.321Z,56.88
2023-03-24T03:53:17.814Z,57.09
2023-03-24T03:55:47.533Z,57.23
2023-03-24T03:58:17.319Z,57.34
2023-03-24T04:00:56.059Z,57.02
2023-03-24T04:03:51.233Z,57.09
2023-03-24T04:06:50.668Z,57.07
2023-03-24T04:09:58.757Z,56.88
2023-03-24T04:12:53.084Z,56.49
2023-03-24T04:15:51.987Z,56.22
2023-03-24T04:19:08.636Z,55.75
2023-03-24T04:21:56.831Z,55.45
2023-03-24T04:24:37.582Z,55.18
2023-03-24T04:27:38.862Z,54.93
2023-03-24T04:30:09.696Z,54.76
2023-03-24T04:32:49.139Z,54.52
2023-03-24T04:35:34.090Z,54.23
2023-03-24T04:38:18.810Z,53.86
2023-03-24T04:40:50.795Z,53.50
2023-03-24T04:43:20.432Z,53.15
2023-03-24T04:45:50.391Z,52.82
2023-03-24T04:48:40.912Z,52.26
2023-03-24T04:51:13.126Z,52.16
2023-03-24T04:54:04.633Z,51.64
2023-03-24T04:56:41.394Z,51.76
2023-03-24T04:59:24.737Z,51.54
2023-03-24T05:01:53.728Z,51.89
2023-03-24T05:04:42.580Z,52.11
2023-03-24T05:07:21.548Z,52.11
2023-03-24T05:09:52.508Z,51.78
2023-03-24T05:12:28.243Z,51.67
2023-03-24T05:15:16.216Z,51.43
2023-03-24T05:17:45.642Z,51.43
2023-03-24T05:20:15.911Z,50.94
2023-03-24T05:22:47.291Z,50.81
2023-03-24T05:25:16.463Z,50.53
2023-03-24T05:27:45.385Z,50.40
2023-03-24T05:30:20.781Z,50.37
2023-03-24T05:32:51.005Z,50.02
2023-03-24T05:35:20.932Z,49.88
2023-03-24T05:37:53.771Z,49.67
2023-03-24T05:40:22.348Z,49.32
2023-03-24T05:43:12.537Z,49.62
2023-03-24T05:45:46.075Z,50.08
2023-03-24T05:48:24.403Z,50.24
2023-03-24T05:51:16.990Z,49.74
2023-03-24T05:53:46.468Z,49.47
2023-03-24T05:56:17.642Z,48.50
2023-03-24T05:58:58.964Z,47.29
2023-03-24T06:01:48.411Z,46.56
2023-03-24T06:04:30.744Z,44.82
2023-03-24T06:07:09.134Z,44.04
2023-03-24T06:09:42.645Z,43.70
2023-03-24T06:12:13.741Z,43.00
2023-03-24T06:14:49.531Z,43.21
2023-03-24T06:17:21.608Z,43.56
2023-03-24T06:19:53.387Z,42.97
2023-03-24T06:22:50.621Z,41.90
2023-03-24T06:25:26.464Z,40.44
2023-03-24T06:28:12.511Z,40.05
2023-03-24T06:30:47.050Z,37.91
2023-03-24T06:33:22.390Z,36.30
2023-03-24T06:35:53.267Z,35.88
2023-03-24T06:38:23.266Z,35.17
2023-03-24T06:40:52.194Z,34.60
2023-03-24T06:43:20.700Z,35.14
2023-03-24T06:45:53.191Z,35.49
2023-03-24T06:48:25.670Z,34.20
2023-03-24T06:51:05.104Z,33.37
2023-03-24T06:53:35.921Z,33.26
2023-03-24T06:56:06.973Z,33.40
2023-03-24T06:58:43.710Z,34.18
2023-03-24T07:01:17.651Z,34.37
2023-03-24T07:03:57.991Z,33.82
2023-03-24T07:07:06.485Z,32.29
2023-03-24T07:09:41.357Z,31.66
2023-03-24T07:12:26.922Z,31.57
2023-03-24T07:14:58.891Z,31.07
2023-03-24T07:17:29.998Z,30.67
2023-03-24T07:20:16.582Z,30.39
2023-03-24T07:23:06.091Z,29.83
2023-03-24T07:26:01.166Z,29.89
2023-03-24T07:28:48.689Z,30.11
2023-03-24T07:31:41.200Z,30.15
2023-03-24T07:34:12.444Z,30.15
2023-03-24T07:36:43.145Z,29.99
2023-03-24T07:39:19.511Z,30.09
2023-03-24T07:41:48.482Z,30.30
2023-03-24T07:44:26.055Z,30.21
2023-03-24T07:46:57.731Z,30.24
2023-03-24T07:49:27.513Z,30.05
2023-03-24T07:52:08.294Z,29.64
2023-03-24T07:54:42.415Z,29.70
2023-03-24T07:57:14.541Z,29.09
2023-03-24T07:59:46.957Z,28.60
2023-03-24T08:02:21.641Z,27.99
2023-03-24T08:04:57.940Z,27.40
2023-03-24T08:07:55.983Z,27.03
2023-03-24T08:10:27.314Z,25.96
2023-03-24T08:13:02.955Z,26.28
2023-03-24T08:15:31.972Z,26.14
2023-03-24T08:18:02.884Z,26.67
2023-03-24T08:23:06.784Z,26.91
2023-03-24T08:25:36.758Z,27.10
2023-03-24T08:28:06.249Z,27.59
2023-03-24T08:30:35.206Z,27.78
2023-03-24T08:33:04.199Z,27.59
2023-03-24T08:35:35.012Z,27.32
2023-03-24T08:38:06.919Z,26.62
2023-03-24T08:40:38.878Z,26.73
2023-03-24T08:43:10.110Z,26.29
2023-03-24T08:45:38.993Z,26.12
2023-03-24T08:48:08.456Z,25.31
2023-03-24T08:50:39.755Z,24.84
2023-03-24T08:53:12.588Z,24.58
2023-03-24T08:55:43.401Z,23.84
2023-03-24T08:58:22.189Z,23.63
2023-03-24T09:00:52.413Z,23.17
2023-03-24T09:03:22.907Z,22.76
2023-03-24T09:05:57.339Z,22.93
2023-03-24T09:08:26.645Z,22.96
2023-03-24T09:11:00.315Z,23.11
2023-03-24T09:13:29.276Z,23.28
2023-03-24T09:16:00.155Z,23.42
2023-03-24T09:18:29.645Z,23.56
2023-03-24T09:20:58.609Z,23.39
2023-03-24T09:23:29.463Z,23.28
2023-03-24T09:25:58.906Z,22.96
2023-03-24T09:28:30.535Z,22.91
2023-03-24T09:31:00.850Z,22.66
2023-03-24T09:33:30.571Z,22.78
2023-03-24T09:36:01.178Z,22.56
2023-03-24T09:38:35.259Z,22.97
2023-03-24T09:41:04.888Z,23.00
2023-03-24T09:43:41.223Z,22.88
2023-03-24T09:46:21.776Z,22.46
2023-03-24T09:48:57.509Z,21.92
2023-03-24T09:51:37.908Z,21.68
2023-03-24T09:54:22.676Z,22.02
2023-03-24T09:56:52.137Z,22.02
2023-03-24T09:59:29.390Z,22.33
2023-03-24T10:01:58.152Z,22.50
2023-03-24T10:04:27.871Z,22.89
2023-03-24T10:07:01.335Z,23.22
2023-03-24T10:09:35.225Z,23.34
2023-03-24T10:12:36.998Z,23.82
2023-03-24T10:18:17.014Z,23.70
2023-03-24T10:21:22.828Z,23.57
2023-03-24T10:24:03.975Z,23.59
2023-03-24T10:26:39.454Z,23.45
2023-03-24T10:29:27.155Z,23.03
2023-03-24T10:32:21.129Z,23.25
2023-03-24T10:35:01.688Z,23.02
2023-03-24T10:37:30.367Z,22.50
2023-03-24T10:39:59.323Z,23.10
2023-03-24T10:42:31.535Z,23.27
2023-03-24T10:45:01.812Z,23.57
2023-03-24T10:47:32.923Z,23.68
2023-03-24T10:50:12.363Z,23.66
2023-03-24T10:52:50.735Z,23.75
2023-03-24T10:55:20.552Z,24.04
2023-03-24T10:57:53.995Z,24.15
2023-03-24T11:00:32.807Z,24.19
2023-03-24T11:03:02.136Z,24.86
2023-03-24T11:05:33.550Z,25.12
2023-03-24T11:08:17.779Z,25.02
2023-03-24T11:10:46.745Z,25.44
2023-03-24T11:13:20.606Z,25.65
2023-03-24T11:16:14.316Z,25.73
2023-03-24T11:18:59.257Z,25.71
2023-03-24T11:21:29.204Z,25.62
2023-03-24T11:24:00.039Z,25.42
2023-03-24T11:26:38.659Z,25.53
2023-03-24T11:29:15.179Z,25.94
2023-03-24T11:31:54.797Z,25.96
2023-03-24T11:34:34.339Z,25.76
2023-03-24T11:37:04.262Z,25.69
2023-03-24T11:39:34.442Z,25.94
2023-03-24T11:42:16.446Z,26.21
2023-03-24T11:44:46.452Z,26.09
2023-03-24T11:47:25.023Z,26.24
2023-03-24T11:50:30.131Z,26.59
2023-03-24T11:53:17.043Z,26.55
2023-03-24T11:56:12.288Z,26.76
2023-03-24T11:58:46.749Z,26.73
2023-03-24T12:01:24.381Z,26.76
2023-03-24T12:04:26.492Z,26.98
2023-03-24T12:07:20.454Z,27.41
2023-03-24T12:10:16.766Z,27.35
2023-03-24T12:12:55.302Z,27.28
2023-03-24T12:15:34.205Z,27.42
2023-03-24T12:18:38.038Z,27.38
2023-03-24T12:21:39.842Z,27.54
2023-03-24T12:24:53.092Z,27.47
2023-03-24T12:27:50.729Z,27.61
2023-03-24T12:30:52.737Z,27.39
2023-03-24T12:33:21.904Z,27.31
2023-03-24T12:35:56.728Z,27.22
2023-03-24T12:38:37.153Z,27.32
2023-03-24T12:41:25.090Z,27.42
2023-03-24T12:44:25.190Z,27.78
2023-03-24T12:47:03.427Z,27.85
2023-03-24T12:49:36.896Z,27.89
2023-03-24T12:52:43.895Z,28.05
2023-03-24T12:55:15.929Z,28.02
2023-03-24T12:57:48.611Z,27.85
2023-03-24T13:00:23.531Z,28.05
2023-03-24T13:02:53.860Z,28.05
2023-03-24T13:05:25.179Z,28.21
2023-03-24T13:07:57.696Z,28.56
2023-03-24T13:10:31.086Z,28.29
2023-03-24T13:13:20.116Z,28.08
2023-03-24T13:15:51.659Z,28.06
2023-03-24T13:18:48.553Z,28.26
2023-03-24T13:21:18.496Z,28.40
2023-03-24T13:23:55.286Z,28.55
2023-03-24T13:26:51.447Z,28.55
2023-03-24T13:29:48.972Z,28.46
2023-03-24T13:32:25.666Z,28.68
2023-03-24T13:35:07.128Z,28.50
2023-03-24T13:37:45.336Z,28.60
2023-03-24T13:40:27.618Z,28.59
2023-03-24T13:43:01.078Z,28.79
2023-03-24T13:45:39.826Z,28.90
2023-03-24T13:48:17.028Z,29.24
2023-03-24T13:51:09.113Z,29.53
2023-03-24T13:53:44.666Z,29.66
2023-03-24T13:56:15.098Z,29.85
2023-03-24T13:59:09.031Z,29.90
2023-03-24T14:01:44.217Z,29.86
2023-03-24T14:04:19.672Z,29.88
2023-03-24T14:06:51.874Z,29.70
2023-03-24T14:09:27.532Z,29.64
2023-03-24T14:12:06.340Z,29.76
2023-03-24T14:15:13.107Z,29.91
2023-03-24T14:17:47.409Z,29.93
2023-03-24T14:20:33.457Z,29.95
2023-03-24T14:23:03.815Z,29.98
2023-03-24T14:25:33.128Z,29.98
2023-03-24T14:28:09.765Z,30.00
2023-03-24T14:30:41.025Z,29.97
2023-03-24T14:33:22.637Z,29.90
2023-03-24T14:35:52.672Z,29.77
2023-03-24T14:38:23.725Z,29.54
2023-03-24T14:40:56.044Z,29.60
2023-03-24T14:43:25.714Z,29.69
2023-03-24T14:46:16.846Z,29.90
2023-03-24T14:49:14.748Z,29.92
2023-03-24T14:52:04.064Z,30.25
2023-03-24T14:54:46.193Z,30.36
2023-03-24T14:57:22.040Z,30.39
2023-03-24T15:00:01.341Z,30.61
2023-03-24T15:02:41.541Z,30.78
2023-03-24T15:05:13.174Z,30.87
2023-03-24T15:07:42.762Z,31.06
2023-03-24T15:10:18.150Z,31.34
2023-03-24T15:12:47.662Z,31.36
2023-03-24T15:15:21.888Z,31.61
2023-03-24T15:17:51.041Z,31.41
2023-03-24T15:20:24.748Z,31.52
2023-03-24T15:22:55.457Z,31.49
2023-03-24T15:25:28.385Z,31.70
2023-03-24T15:27:58.561Z,31.51
2023-03-24T15:30:28.002Z,31.52
2023-03-24T15:32:56.804Z,31.25
2023-03-24T15:35:25.671Z,31.23
2023-03-24T15:37:56.665Z,31.33
2023-03-24T15:40:30.564Z,31.28
2023-03-24T15:43:00.864Z,31.42
2023-03-24T15:45:36.555Z,31.33
2023-03-24T15:48:12.538Z,31.49
2023-03-24T15:50:42.292Z,31.63
2023-03-24T15:53:14.411Z,31.72
2023-03-24T15:55:46.269Z,31.77
2023-03-24T15:58:28.052Z,31.77
2023-03-24T16:01:02.587Z,31.89
2023-03-24T16:03:34.546Z,32.03
2023-03-24T16:06:04.299Z,32.12
2023-03-24T16:08:41.315Z,32.35
2023-03-24T16:11:12.291Z,32.46
2023-03-24T16:13:47.784Z,32.84
2023-03-24T16:16:25.315Z,33.19
2023-03-24T16:18:54.311Z,33.32
2023-03-24T16:21:24.995Z,33.39
2023-03-24T16:23:58.861Z,33.78
2023-03-24T16:26:29.550Z,33.85
2023-03-24T16:29:03.790Z,34.20
2023-03-24T16:31:35.415Z,34.62
2023-03-24T16:34:04.063Z,34.97
2023-03-24T16:36:33.238Z,35.23
2023-03-24T16:39:01.992Z,35.22
2023-03-24T16:41:33.521Z,35.37
2023-03-24T16:44:02.249Z,35.57
2023-03-24T16:46:32.049Z,35.95
2023-03-24T16:49:06.162Z,36.19
2023-03-24T16:51:35.428Z,36.28
2023-03-24T16:54:07.757Z,36.32
2023-03-24T16:56:37.860Z,36.43
2023-03-24T16:59:06.810Z,36.72
2023-03-24T17:01:42.144Z,37.29
2023-03-24T17:04:19.522Z,36.79
2023-03-24T17:06:53.696Z,36.80
2023-03-24T17:09:23.271Z,36.72
2023-03-24T17:11:56.909Z,37.00
2023-03-24T17:14:33.141Z,37.03
2023-03-24T17:17:04.899Z,36.99
2023-03-24T17:19:34.424Z,37.01
2023-03-24T17:22:07.109Z,37.14
2023-03-24T17:24:38.326Z,37.40
2023-03-24T17:27:18.923Z,37.35
2023-03-24T17:29:47.685Z,37.19
2023-03-24T17:32:16.422Z,37.21
2023-03-24T17:34:45.831Z,37.26
2023-03-24T17:37:15.203Z,37.21
2023-03-24T17:39:44.320Z,37.39
2023-03-24T17:42:15.005Z,37.43
2023-03-24T17:44:44.915Z,37.79
2023-03-24T17:47:13.517Z,37.51
2023-03-24T17:50:02.147Z,37.56
2023-03-24T17:52:46.871Z,37.53
2023-03-24T17:55:16.389Z,37.65
2023-03-24T17:57:45.237Z,37.79
2023-03-24T18:00:14.937Z,37.73
2023-03-24T18:02:44.349Z,37.85
2023-03-24T18:05:16.107Z,37.89
2023-03-24T18:07:47.439Z,37.98
2023-03-24T18:10:16.900Z,38.17
2023-03-24T18:12:47.472Z,38.36
2023-03-24T18:15:17.227Z,38.50
2023-03-24T18:17:48.916Z,38.71
2023-03-24T18:20:21.282Z,38.64
2023-03-24T18:22:51.226Z,38.53
2023-03-24T18:25:20.439Z,38.53
2023-03-24T18:27:51.721Z,38.58
2023-03-24T18:30:22.533Z,38.77
2023-03-24T18:32:51.478Z,38.97
2023-03-24T18:35:24.632Z,39.18
2023-03-24T18:37:53.480Z,39.36
2023-03-24T18:40:24.498Z,39.55
2023-03-24T18:42:53.668Z,39.58
2023-03-24T18:45:22.537Z,39.53
2023-03-24T18:47:54.095Z,39.84
2023-03-24T18:50:23.280Z,39.80
2023-03-24T18:52:57.864Z,40.04
2023-03-24T18:55:30.400Z,39.80
2023-03-24T18:57:59.576Z,40.03
2023-03-24T19:00:29.999Z,40.10
2023-03-24T19:03:01.022Z,40.09
2023-03-24T19:05:32.928Z,40.23
2023-03-24T19:08:06.489Z,40.06
2023-03-24T19:10:35.876Z,40.42
2023-03-24T19:13:05.852Z,40.43
2023-03-24T19:15:35.774Z,40.43
2023-03-24T19:18:05.788Z,40.40
2023-03-24T19:20:38.022Z,40.57
2023-03-24T19:23:08.071Z,40.70
2023-03-24T19:25:37.065Z,40.38
2023-03-24T19:28:06.368Z,40.61
2023-03-24T19:30:34.896Z,40.64
2023-03-24T19:33:03.602Z,40.53
2023-03-24T19:35:33.751Z,40.63
2023-03-24T19:38:03.073Z,40.59
2023-03-24T19:40:36.790Z,40.60
2023-03-24T19:43:05.708Z,40.51
2023-03-24T19:45:34.578Z,40.61
2023-03-24T19:48:03.580Z,40.66
2023-03-24T19:50:33.464Z,40.37
2023-03-24T19:53:04.568Z,40.47
2023-03-24T19:55:56.353Z,40.63
2023-03-24T19:58:32.358Z,40.97
2023-03-24T20:01:02.193Z,41.47
2023-03-24T20:03:32.249Z,41.93
2023-03-24T20:06:05.237Z,42.51
2023-03-24T20:08:34.297Z,43.47
2023-03-24T20:11:12.150Z,44.41
2023-03-24T20:13:48.446Z,44.91
2023-03-24T20:16:17.951Z,45.37
2023-03-24T20:18:46.559Z,45.35
2023-03-24T20:21:20.765Z,45.97
2023-03-24T20:23:50.050Z,46.20
2023-03-24T20:26:19.788Z,46.77
2023-03-24T20:28:48.794Z,46.50
2023-03-24T20:31:18.122Z,46.46
2023-03-24T20:33:47.511Z,46.21
2023-03-24T20:36:16.109Z,46.68
2023-03-24T20:38:44.852Z,46.85
2023-03-24T20:41:13.618Z,46.88
2023-03-24T20:43:45.739Z,47.09
2023-03-24T20:46:17.041Z,47.57
2023-03-24T20:48:46.042Z,47.81
2023-03-24T20:51:14.798Z,47.41
2023-03-24T20:53:44.921Z,48.16
2023-03-24T20:56:15.246Z,47.95
2023-03-24T20:58:48.294Z,47.74
2023-03-24T21:01:22.336Z,47.60
2023-03-24T21:03:51.505Z,47.62
2023-03-24T21:06:21.069Z,47.19
2023-03-24T21:08:49.723Z,47.35
2023-03-24T21:11:21.405Z,47.56
2023-03-24T21:13:50.691Z,47.19
2023-03-24T21:16:20.012Z,47.91
2023-03-24T21:18:51.599Z,47.43
2023-03-24T21:21:20.670Z,48.10
2023-03-24T21:23:49.331Z,48.57
2023-03-24T21:26:18.265Z,49.25
2023-03-24T21:28:47.072Z,49.68
2023-03-24T21:31:24.625Z,50.45
2023-03-24T21:33:54.230Z,50.01
2023-03-24T21:36:24.537Z,50.05
2023-03-24T21:38:54.277Z,50.38
2023-03-24T21:41:23.361Z,50.00
2023-03-24T21:43:54.628Z,50.32
2023-03-24T21:46:26.552Z,50.75
2023-03-24T21:48:59.426Z,50.37
2023-03-24T21:51:30.856Z,50.70
2023-03-24T21:54:06.807Z,52.15
2023-03-24T21:56:38.229Z,51.63
2023-03-24T21:59:06.757Z,52.02
2023-03-24T22:01:36.533Z,51.99
2023-03-24T22:04:06.223Z,51.69
2023-03-24T22:06:39.615Z,52.51
2023-03-24T22:09:15.472Z,51.70
2023-03-24T22:11:44.370Z,51.33
2023-03-24T22:14:16.090Z,51.44
2023-03-24T22:16:45.416Z,51.82
2023-03-24T22:19:14.289Z,51.68
2023-03-24T22:22:00.678Z,53.27
2023-03-24T22:24:30.068Z,53.20
2023-03-24T22:26:58.937Z,54.63
2023-03-24T22:29:29.239Z,54.53
2023-03-24T22:31:57.864Z,55.56
2023-03-24T22:34:28.841Z,55.41
2023-03-24T22:36:57.378Z,55.88
2023-03-24T22:39:26.257Z,55.48
2023-03-24T22:41:57.256Z,55.98
2023-03-24T22:44:26.433Z,56.05
2023-03-24T22:46:59.323Z,56.90
2023-03-24T22:49:29.705Z,56.86
2023-03-24T22:51:58.106Z,57.12
2023-03-24T22:54:26.937Z,57.43
2023-03-24T22:56:56.080Z,57.63
2023-03-24T22:59:32.565Z,56.94
2023-03-24T23:02:09.280Z,57.86
2023-03-24T23:04:42.095Z,58.39
2023-03-24T23:07:10.768Z,57.38
2023-03-24T23:09:43.233Z,57.56
2023-03-24T23:12:13.798Z,58.07
2023-03-24T23:14:42.433Z,57.66
2023-03-24T23:17:11.076Z,57.90
2023-03-24T23:19:39.730Z,57.70
2023-03-24T23:22:08.610Z,58.17
2023-03-24T23:24:39.673Z,59.16
2023-03-24T23:27:08.903Z,58.82
2023-03-24T23:29:41.045Z,58.84
2023-03-24T23:32:09.801Z,59.37
2023-03-24T23:34:38.758Z,60.19
2023-03-24T23:37:07.427Z,59.56
2023-03-24T23:39:39.491Z,60.07
2023-03-24T23:42:07.875Z,59.64
2023-03-24T23:44:38.962Z,59.59
2023-03-24T23:47:08.118Z,60.09
2023-03-24T23:49:36.637Z,60.41
2023-03-24T23:52:05.262Z,60.78
2023-03-24T23:54:33.667Z,60.06
2023-03-24T23:57:03.554Z,61.03
2023-03-24T23:59:32.770Z,60.62
